Time;durP1;ratioP1;P1;durP2;ratioP2;P2;SDS_P1;SDS_P2;PMS_P1;PMS_P2;Temp;Humidity;BMP_temperature;BMP_pressure;BME280_temperature;BME280_humidity;BME280_pressure;Samples;Min_cycle;Max_cycle;Signal;HPM_P1;HPM_P2
2023/07/28 00:01:42;;;;;;;3.73;3.10;;;16.10;99.90;;;;;;5030034;28;20545;-71
2023/07/28 00:04:09;;;;;;;3.60;3.30;;;16.10;99.90;;;;;;5024329;28;20290;-71
2023/07/28 00:06:35;;;;;;;3.77;2.50;;;16.10;99.90;;;;;;5033901;28;20168;-69
2023/07/28 00:09:01;;;;;;;6.00;3.20;;;16.10;99.90;;;;;;5033914;28;20485;-71
2023/07/28 00:11:26;;;;;;;3.47;3.00;;;16.00;99.90;;;;;;5033813;28;20317;-68
2023/07/28 00:13:52;;;;;;;2.73;2.53;;;15.90;99.90;;;;;;5023217;28;20653;-69
2023/07/28 00:16:18;;;;;;;4.50;3.00;;;15.90;99.90;;;;;;5013949;28;20203;-71
2023/07/28 00:18:43;;;;;;;2.80;2.60;;;15.90;99.90;;;;;;5015442;28;20707;-69
2023/07/28 00:21:09;;;;;;;2.77;2.57;;;15.90;99.90;;;;;;5033183;28;20201;-72
2023/07/28 00:23:35;;;;;;;4.33;3.30;;;15.90;99.90;;;;;;5032681;28;20257;-72
2023/07/28 00:26:00;;;;;;;3.03;2.73;;;15.90;99.90;;;;;;5033404;28;20587;-69
2023/07/28 00:28:26;;;;;;;3.00;2.80;;;15.90;99.90;;;;;;5033737;28;20187;-72
2023/07/28 00:30:52;;;;;;;4.23;3.87;;;16.00;99.90;;;;;;5034012;28;20172;-70
2023/07/28 00:33:17;;;;;;;3.93;3.50;;;16.00;99.90;;;;;;5032070;28;20706;-70
2023/07/28 00:35:43;;;;;;;4.90;3.60;;;16.00;99.90;;;;;;5026279;28;20192;-71
2023/07/28 00:38:09;;;;;;;3.27;3.07;;;16.00;99.90;;;;;;5013996;28;20707;-74
2023/07/28 00:40:36;;;;;;;3.70;3.10;;;16.00;99.90;;;;;;5013874;28;20534;-72
2023/07/28 00:43:02;;;;;;;6.50;3.33;;;16.00;99.90;;;;;;5014342;28;20275;-71
2023/07/28 00:45:29;;;;;;;2.67;2.47;;;16.00;99.90;;;;;;5012475;28;20406;-71
2023/07/28 00:47:57;;;;;;;3.37;2.63;;;15.90;99.90;;;;;;5014039;28;20454;-70
2023/07/28 00:50:23;;;;;;;3.43;3.13;;;15.80;99.90;;;;;;5014146;28;20443;-70
2023/07/28 00:52:50;;;;;;;3.93;3.27;;;15.70;99.90;;;;;;5022723;28;20445;-71
2023/07/28 00:55:16;;;;;;;5.10;3.13;;;15.70;99.90;;;;;;5032364;28;20403;-69
2023/07/28 00:57:42;;;;;;;2.73;2.57;;;15.70;99.90;;;;;;5033077;28;20507;-71
2023/07/28 01:00:09;;;;;;;3.40;3.20;;;15.70;99.90;;;;;;5033659;28;20437;-71
2023/07/28 01:02:35;;;;;;;4.17;3.77;;;15.80;99.90;;;;;;5032170;28;20458;-69
2023/07/28 01:05:01;;;;;;;4.10;3.80;;;15.80;99.90;;;;;;5032358;28;20426;-77
2023/07/28 01:07:43;;;;;;;4.47;3.90;;;15.90;99.90;;;;;;5033226;28;20422;-69
2023/07/28 01:10:14;;;;;;;3.63;3.33;;;15.90;99.90;;;;;;5022235;28;20481;-70
2023/07/28 01:12:40;;;;;;;3.33;2.83;;;15.90;99.90;;;;;;5013729;28;20407;-72
2023/07/28 01:15:06;;;;;;;5.13;3.37;;;15.80;99.90;;;;;;5013008;28;20447;-74
2023/07/28 01:17:32;;;;;;;3.70;3.13;;;15.80;99.90;;;;;;5015778;28;20192;-70
2023/07/28 01:19:58;;;;;;;3.93;3.63;;;15.80;99.90;;;;;;5013265;28;20553;-69
2023/07/28 01:22:57;;;;;;;5.90;4.23;;;15.70;99.90;;;;;;5013505;28;20172;-70
2023/07/28 01:25:48;;;;;;;3.77;3.33;;;15.70;99.90;;;;;;5012438;28;20439;-70
2023/07/28 01:28:16;;;;;;;5.53;4.10;;;15.70;99.90;;;;;;5028292;28;20462;-70
2023/07/28 01:30:42;;;;;;;5.50;3.53;;;15.80;99.90;;;;;;5033430;28;20553;-70
2023/07/28 01:33:08;;;;;;;4.43;4.00;;;15.80;99.90;;;;;;5033351;28;20950;-71
2023/07/28 01:35:37;;;;;;;3.77;3.47;;;15.80;99.90;;;;;;5032213;28;20171;-73
2023/07/28 01:38:03;;;;;;;4.30;3.40;;;15.80;99.90;;;;;;5031923;28;20946;-73
2023/07/28 01:40:28;;;;;;;4.73;3.90;;;15.80;99.90;;;;;;5032631;28;20476;-72
2023/07/28 01:42:54;;;;;;;4.63;2.80;;;15.80;99.90;;;;;;5026535;28;20333;-72
2023/07/28 01:45:20;;;;;;;3.70;3.50;;;15.80;99.90;;;;;;5011340;28;20183;-70
2023/07/28 01:47:45;;;;;;;4.30;3.90;;;15.80;99.90;;;;;;5013274;28;20572;-72
2023/07/28 01:50:11;;;;;;;3.70;3.40;;;15.80;99.90;;;;;;5013389;28;20334;-72
2023/07/28 01:52:37;;;;;;;3.67;3.23;;;15.80;99.90;;;;;;5012695;28;20183;-71
2023/07/28 01:55:03;;;;;;;6.63;3.30;;;15.80;99.90;;;;;;5012835;28;20192;-76
2023/07/28 01:57:32;;;;;;;4.27;3.70;;;15.80;99.90;;;;;;5012485;28;20188;-74
2023/07/28 01:59:58;;;;;;;4.13;3.83;;;15.80;99.90;;;;;;5012919;28;20183;-71
2023/07/28 02:02:24;;;;;;;3.43;3.17;;;15.80;99.90;;;;;;5013385;28;20418;-69
2023/07/28 02:04:49;;;;;;;5.43;3.63;;;15.90;99.90;;;;;;5013160;28;20192;-72
2023/07/28 02:07:15;;;;;;;5.67;4.97;;;15.80;99.90;;;;;;5014789;28;20184;-71
2023/07/28 02:09:41;;;;;;;5.60;5.10;;;15.70;99.90;;;;;;5026975;28;20183;-69
2023/07/28 02:12:07;;;;;;;4.60;4.30;;;15.60;99.90;;;;;;5032180;28;20178;-71
2023/07/28 02:14:32;;;;;;;4.40;4.00;;;15.60;99.90;;;;;;5032346;28;20243;-69
2023/07/28 02:16:58;;;;;;;5.30;4.80;;;15.50;1.00;;;;;;5029003;28;20464;-71
2023/07/28 02:19:25;;;;;;;5.20;4.80;;;15.50;1.00;;;;;;5032314;28;20215;-70
2023/07/28 02:21:50;;;;;;;7.00;4.90;;;15.60;1.00;;;;;;5033097;28;20229;-69
2023/07/28 02:24:16;;;;;;;4.90;4.40;;;15.60;1.00;;;;;;5032769;28;20454;-70
2023/07/28 02:26:42;;;;;;;4.27;3.87;;;15.70;1.00;;;;;;5031772;28;20576;-69
2023/07/28 02:29:07;;;;;;;5.17;4.77;;;15.70;1.00;;;;;;5032106;28;20172;-70
2023/07/28 02:31:33;;;;;;;4.70;4.23;;;15.60;1.00;;;;;;5026705;28;20172;-69
2023/07/28 02:33:59;;;;;;;4.73;4.33;;;15.60;1.00;;;;;;5029424;28;20191;-75
2023/07/28 02:36:24;;;;;;;5.37;4.70;;;15.60;1.00;;;;;;5032015;28;20171;-69
2023/07/28 02:38:50;;;;;;;4.03;3.73;;;15.60;1.00;;;;;;5036332;28;20168;-69
2023/07/28 02:41:16;;;;;;;5.27;4.77;;;15.70;1.00;;;;;;5036370;28;20171;-69
2023/07/28 02:43:41;;;;;;;5.50;4.60;;;15.70;1.00;;;;;;5036284;28;20713;-68
2023/07/28 02:46:07;;;;;;;4.37;4.07;;;15.70;1.00;;;;;;5034672;28;20168;-69
2023/07/28 02:48:33;;;;;;;4.73;4.33;;;15.70;1.00;;;;;;5030753;28;20203;-71
2023/07/28 02:50:58;;;;;;;4.83;4.43;;;15.70;1.00;;;;;;5022838;28;20225;-69
2023/07/28 02:53:24;;;;;;;4.93;4.53;;;15.70;1.00;;;;;;5036154;28;20163;-69
2023/07/28 02:55:51;;;;;;;5.73;5.23;;;15.70;1.00;;;;;;5035095;28;20727;-69
2023/07/28 02:58:17;;;;;;;5.03;4.60;;;15.80;1.00;;;;;;5034905;28;20438;-72
2023/07/28 03:00:44;;;;;;;6.17;5.67;;;15.80;1.00;;;;;;5036032;28;20588;-71
2023/07/28 03:03:11;;;;;;;4.57;4.27;;;15.80;1.00;;;;;;5034972;28;20203;-72
2023/07/28 03:05:38;;;;;;;6.10;4.50;;;15.80;1.00;;;;;;5034491;28;20406;-69
2023/07/28 03:08:04;;;;;;;5.63;4.67;;;15.80;1.00;;;;;;5035306;28;20426;-70
2023/07/28 03:10:30;;;;;;;6.80;4.63;;;15.70;1.00;;;;;;5035619;28;20410;-68
2023/07/28 03:12:56;;;;;;;7.03;4.37;;;15.70;1.00;;;;;;5035975;28;20402;-71
2023/07/28 03:15:22;;;;;;;5.03;4.53;;;15.70;1.00;;;;;;5033191;28;20187;-69
2023/07/28 03:17:49;;;;;;;5.27;4.77;;;15.60;1.00;;;;;;5034985;28;20461;-69
2023/07/28 03:20:15;;;;;;;7.10;4.47;;;15.60;1.00;;;;;;5035541;28;20448;-69
2023/07/28 03:22:40;;;;;;;6.90;4.80;;;15.60;1.00;;;;;;5034967;28;20537;-71
2023/07/28 03:25:06;;;;;;;4.87;4.40;;;15.60;1.00;;;;;;5034414;28;20815;-72
2023/07/28 03:27:32;;;;;;;5.13;4.63;;;15.60;1.00;;;;;;5034816;28;20644;-69
2023/07/28 03:29:58;;;;;;;5.17;4.47;;;15.40;1.00;;;;;;5034777;28;20426;-71
2023/07/28 03:32:24;;;;;;;4.27;3.90;;;15.40;1.00;;;;;;5035391;28;20187;-70
2023/07/28 03:34:49;;;;;;;4.37;4.07;;;15.40;1.00;;;;;;5032436;28;20198;-73
2023/07/28 03:37:15;;;;;;;4.43;4.10;;;15.40;1.00;;;;;;5033028;28;20199;-71
2023/07/28 03:39:41;;;;;;;5.30;4.80;;;15.50;1.00;;;;;;5034592;28;20167;-69
2023/07/28 03:42:07;;;;;;;6.27;4.20;;;15.40;1.00;;;;;;5035225;28;20168;-71
2023/07/28 03:44:33;;;;;;;6.43;4.07;;;15.50;1.00;;;;;;5033186;28;20257;-72
2023/07/28 03:46:59;;;;;;;5.73;4.80;;;15.50;1.00;;;;;;5033477;28;20418;-70
2023/07/28 03:49:25;;;;;;;4.33;4.03;;;15.50;1.00;;;;;;5033463;28;20461;-69
2023/07/28 03:51:50;;;;;;;5.50;4.90;;;15.50;1.00;;;;;;5034827;28;20202;-70
2023/07/28 03:54:16;;;;;;;4.73;4.40;;;15.40;1.00;;;;;;5034940;28;20581;-68
2023/07/28 03:56:42;;;;;;;4.67;4.27;;;15.40;1.00;;;;;;5033264;28;20211;-69
2023/07/28 03:59:07;;;;;;;5.27;4.90;;;15.40;1.00;;;;;;5034405;28;20175;-69
2023/07/28 04:01:33;;;;;;;4.40;4.00;;;15.30;1.00;;;;;;5034870;28;20179;-69
2023/07/28 04:04:03;;;;;;;4.63;4.33;;;15.30;1.00;;;;;;5034043;28;20206;-71
2023/07/28 04:06:45;;;;;;;5.63;5.13;;;15.40;1.00;;;;;;5030969;28;20223;-71
2023/07/28 04:09:13;;;;;;;5.40;4.10;;;15.40;1.00;;;;;;5025794;28;20441;-70
2023/07/28 04:11:39;;;;;;;5.33;4.83;;;15.40;1.00;;;;;;5033445;28;20418;-69
2023/07/28 04:14:05;;;;;;;6.43;4.20;;;15.40;1.00;;;;;;5034789;28;20406;-70
2023/07/28 04:16:31;;;;;;;5.73;4.37;;;15.50;1.00;;;;;;5033108;28;20180;-68
2023/07/28 04:18:57;;;;;;;4.60;4.27;;;15.50;1.00;;;;;;5033753;28;20434;-71
2023/07/28 04:21:22;;;;;;;6.80;4.27;;;15.60;1.00;;;;;;5033461;28;20493;-71
2023/07/28 04:23:48;;;;;;;5.30;4.80;;;15.50;1.00;;;;;;5033075;28;20686;-69
2023/07/28 04:26:14;;;;;;;5.73;5.00;;;15.50;1.00;;;;;;5033007;28;20168;-73
2023/07/28 04:28:40;;;;;;;4.80;4.03;;;15.60;1.00;;;;;;5031883;28;20203;-69
2023/07/28 04:31:06;;;;;;;5.37;4.40;;;15.60;1.00;;;;;;5013271;28;20208;-68
2023/07/28 04:33:31;;;;;;;7.43;4.67;;;15.70;1.00;;;;;;5013989;28;20537;-70
2023/07/28 04:35:57;;;;;;;4.80;4.40;;;15.70;1.00;;;;;;5013535;28;20486;-69
2023/07/28 04:38:23;;;;;;;5.00;4.60;;;15.70;1.00;;;;;;5014126;28;20727;-71
2023/07/28 04:40:48;;;;;;;5.90;5.33;;;15.70;1.00;;;;;;5013529;28;20172;-71
2023/07/28 04:43:14;;;;;;;5.27;4.87;;;15.70;1.00;;;;;;5033662;28;20678;-69
2023/07/28 04:45:40;;;;;;;5.40;5.00;;;15.80;1.00;;;;;;5031855;28;20430;-69
2023/07/28 04:48:05;;;;;;;4.80;4.40;;;15.80;1.00;;;;;;5033913;28;20637;-70
2023/07/28 04:50:33;;;;;;;8.60;4.77;;;15.90;1.00;;;;;;5032682;28;20637;-70
2023/07/28 04:52:59;;;;;;;7.10;5.53;;;16.00;1.00;;;;;;5033157;28;20163;-69
2023/07/28 04:55:26;;;;;;;10.30;5.87;;;16.10;1.00;;;;;;5033011;28;20407;-69
2023/07/28 04:57:52;;;;;;;5.27;4.77;;;16.10;1.00;;;;;;5014513;28;20557;-71
2023/07/28 05:00:18;;;;;;;6.30;4.40;;;16.20;1.00;;;;;;5013387;28;20595;-69
2023/07/28 05:02:44;;;;;;;4.50;4.10;;;16.20;1.00;;;;;;5012740;28;20455;-69
2023/07/28 05:05:10;;;;;;;5.37;4.87;;;16.30;1.00;;;;;;5013014;28;20183;-69
2023/07/28 05:07:35;;;;;;;5.27;4.77;;;16.30;1.00;;;;;;5013767;28;20195;-69
2023/07/28 05:10:02;;;;;;;8.93;6.30;;;16.40;5.60;;;;;;5013341;28;20172;-70
2023/07/28 05:12:28;;;;;;;7.37;5.00;;;16.40;13.80;;;;;;5029465;28;20201;-69
2023/07/28 05:14:54;;;;;;;6.00;5.40;;;16.50;21.90;;;;;;5031463;28;20914;-69
2023/07/28 05:17:19;;;;;;;7.87;5.30;;;16.50;30.90;;;;;;5032877;28;20187;-70
2023/07/28 05:19:45;;;;;;;5.70;5.23;;;16.60;38.90;;;;;;5033570;28;20624;-68
2023/07/28 05:22:11;;;;;;;5.80;5.30;;;16.60;38.90;;;;;;5048909;28;20198;-70
2023/07/28 05:24:36;;;;;;;10.83;5.57;;;16.60;39.10;;;;;;5033631;28;20199;-69
2023/07/28 05:27:02;;;;;;;7.53;5.33;;;16.60;39.00;;;;;;5029917;28;20199;-69
2023/07/28 05:29:28;;;;;;;6.33;5.73;;;16.60;39.00;;;;;;5033384;28;20178;-69
2023/07/28 05:31:54;;;;;;;9.17;6.37;;;16.60;44.50;;;;;;5032774;28;20174;-70
2023/07/28 05:34:19;;;;;;;7.00;5.60;;;16.60;56.10;;;;;;5033050;28;20210;-69
2023/07/28 05:36:45;;;;;;;6.37;5.77;;;16.60;64.90;;;;;;5031037;28;20249;-69
2023/07/28 05:39:11;;;;;;;10.03;7.20;;;16.60;76.20;;;;;;5033239;28;20175;-69
2023/07/28 05:41:37;;;;;;;8.90;7.40;;;16.50;85.70;;;;;;5023690;28;20181;-70
2023/07/28 05:44:03;;;;;;;7.00;6.03;;;16.50;92.20;;;;;;5019801;28;20466;-70
2023/07/28 05:46:29;;;;;;;7.90;7.10;;;16.50;99.60;;;;;;5012659;28;20449;-69
2023/07/28 05:48:56;;;;;;;7.27;5.83;;;16.60;99.90;;;;;;5013440;28;20931;-66
2023/07/28 05:51:22;;;;;;;7.57;6.77;;;16.70;99.90;;;;;;5011442;28;20176;-68
2023/07/28 05:53:49;;;;;;;8.20;7.37;;;16.70;99.90;;;;;;5013231;28;20415;-69
2023/07/28 05:56:15;;;;;;;7.13;6.40;;;16.80;99.90;;;;;;5014932;28;20479;-69
2023/07/28 05:58:40;;;;;;;9.43;7.67;;;16.80;99.90;;;;;;5031521;28;20835;-70
2023/07/28 06:01:06;;;;;;;8.27;7.43;;;16.80;99.90;;;;;;5026094;28;20521;-71
2023/07/28 06:03:32;;;;;;;7.93;7.20;;;16.70;99.90;;;;;;5030938;28;20278;-71
2023/07/28 06:05:57;;;;;;;9.00;8.20;;;16.70;99.90;;;;;;5032175;28;20651;-71
2023/07/28 06:08:23;;;;;;;10.63;9.60;;;16.60;99.90;;;;;;5032555;28;20223;-70
2023/07/28 06:10:49;;;;;;;14.43;8.03;;;16.50;99.90;;;;;;5032803;28;20280;-71
2023/07/28 06:13:15;;;;;;;8.80;7.90;;;16.50;99.90;;;;;;5036121;28;20171;-69
2023/07/28 06:15:41;;;;;;;11.00;9.10;;;16.40;99.90;;;;;;5035520;28;20643;-69
2023/07/28 06:18:07;;;;;;;12.67;8.47;;;16.60;99.90;;;;;;5036589;28;20560;-70
2023/07/28 06:20:34;;;;;;;9.67;8.43;;;16.70;99.90;;;;;;5036781;28;20408;-71
2023/07/28 06:23:00;;;;;;;9.40;8.50;;;16.70;99.90;;;;;;5036094;28;20191;-69
2023/07/28 06:25:26;;;;;;;9.50;7.57;;;16.70;99.90;;;;;;5035901;28;20402;-71
2023/07/28 06:27:51;;;;;;;10.03;8.50;;;16.80;99.90;;;;;;5035431;28;20191;-71
2023/07/28 06:30:17;;;;;;;10.57;9.10;;;16.70;99.90;;;;;;5036220;28;20628;-71
2023/07/28 06:32:43;;;;;;;10.00;7.97;;;16.80;99.90;;;;;;5036515;28;20174;-71
2023/07/28 06:35:09;;;;;;;8.23;7.43;;;16.70;99.90;;;;;;5034351;28;20179;-72
2023/07/28 06:37:38;;;;;;;8.30;7.50;;;16.70;99.90;;;;;;5035954;28;20245;-70
2023/07/28 06:40:09;;;;;;;7.87;6.87;;;16.70;99.90;;;;;;5036095;28;20410;-70
2023/07/28 06:42:36;;;;;;;7.87;7.17;;;16.80;99.90;;;;;;5035679;28;20410;-69
2023/07/28 06:45:03;;;;;;;10.10;6.83;;;16.80;99.90;;;;;;5034556;28;20440;-75
2023/07/28 06:47:29;;;;;;;8.33;6.90;;;16.90;99.90;;;;;;5035526;28;20425;-70
2023/07/28 06:49:54;;;;;;;8.03;6.50;;;16.80;99.90;;;;;;5034488;28;20919;-69
2023/07/28 06:52:20;;;;;;;7.80;7.00;;;16.70;99.90;;;;;;5036133;28;20407;-71
2023/07/28 06:54:47;;;;;;;6.70;6.10;;;16.80;99.90;;;;;;5033636;28;20659;-70
2023/07/28 06:57:13;;;;;;;7.30;5.53;;;17.00;99.90;;;;;;5034494;28;20191;-70
2023/07/28 06:59:38;;;;;;;7.47;6.13;;;17.30;99.90;;;;;;5036076;28;20402;-71
2023/07/28 07:02:05;;;;;;;5.47;4.97;;;17.50;99.90;;;;;;5035900;28;20697;-70
2023/07/28 07:04:31;;;;;;;7.23;5.53;;;17.70;99.90;;;;;;5033715;28;20696;-69
2023/07/28 07:06:56;;;;;;;7.63;6.20;;;17.80;99.90;;;;;;5033801;28;20438;-70
2023/07/28 07:09:22;;;;;;;9.77;5.90;;;17.70;99.90;;;;;;5035280;28;20187;-71
2023/07/28 07:11:48;;;;;;;7.43;5.90;;;17.40;99.90;;;;;;5035688;28;20214;-69
2023/07/28 07:14:14;;;;;;;5.70;5.30;;;17.30;99.90;;;;;;5035568;28;20567;-70
2023/07/28 07:16:40;;;;;;;6.03;5.20;;;17.30;99.90;;;;;;5034040;28;20199;-69
2023/07/28 07:19:05;;;;;;;7.67;5.20;;;17.30;99.90;;;;;;5035808;28;20406;-71
2023/07/28 07:21:31;;;;;;;11.27;5.33;;;17.30;99.90;;;;;;5035081;28;20644;-70
2023/07/28 07:23:57;;;;;;;5.47;5.07;;;17.40;99.90;;;;;;5034783;28;20218;-71
2023/07/28 07:26:23;;;;;;;7.13;5.50;;;17.40;99.90;;;;;;5034563;28;20172;-71
2023/07/28 07:28:48;;;;;;;7.60;5.43;;;17.30;99.90;;;;;;5035554;28;20663;-69
2023/07/28 07:31:14;;;;;;;7.43;6.43;;;17.30;99.90;;;;;;5034052;28;20262;-70
2023/07/28 07:33:41;;;;;;;5.77;5.33;;;17.50;99.90;;;;;;5033672;28;20179;-70
2023/07/28 07:36:18;;;;;;;7.27;4.87;;;17.60;99.90;;;;;;5034570;28;20414;-69
2023/07/28 07:38:47;;;;;;;8.80;4.80;;;17.80;99.90;;;;;;5034636;28;20438;-71
2023/07/28 07:41:19;;;;;;;6.70;4.40;;;18.00;99.90;;;;;;5034597;28;20414;-71
2023/07/28 07:43:45;;;;;;;3.80;3.60;;;18.10;76.60;;;;;;5035140;28;20549;-69
2023/07/28 07:46:10;;;;;;;14.97;4.90;;;18.30;40.70;;;;;;5034369;28;20485;-71
2023/07/28 07:48:36;;;;;;;5.33;4.47;;;18.40;1.00;;;;;;5034795;28;20462;-73
2023/07/28 07:51:02;;;;;;;4.23;3.93;;;18.50;1.00;;;;;;5033618;28;20623;-70
2023/07/28 07:53:28;;;;;;;4.47;4.07;;;18.60;1.00;;;;;;5022338;28;20214;-70
2023/07/28 07:55:53;;;;;;;4.60;3.83;;;18.70;1.00;;;;;;5013264;28;20172;-70
2023/07/28 07:58:19;;;;;;;3.60;3.30;;;18.80;1.00;;;;;;5015034;28;20325;-71
2023/07/28 08:00:45;;;;;;;10.33;4.20;;;18.90;1.00;;;;;;5012968;28;20259;-69
2023/07/28 08:03:11;;;;;;;4.90;3.60;;;19.00;1.00;;;;;;5015351;28;20199;-70
2023/07/28 08:05:37;;;;;;;6.60;4.83;;;19.20;1.00;;;;;;5020239;28;20176;-69
2023/07/28 08:08:03;;;;;;;4.40;3.97;;;19.40;1.00;;;;;;5034213;28;20211;-71
2023/07/28 08:10:29;;;;;;;4.33;3.93;;;19.50;99.90;;;;;;5025094;28;20904;-69
2023/07/28 08:12:55;;;;;;;4.20;3.70;;;19.50;99.90;;;;;;5014486;28;20501;-69
2023/07/28 08:15:21;;;;;;;3.80;3.27;;;19.40;99.90;;;;;;5029432;28;20168;-71
2023/07/28 08:17:46;;;;;;;3.10;2.90;;;19.40;99.90;;;;;;5014707;28;20462;-70
2023/07/28 08:20:13;;;;;;;4.30;3.60;;;19.10;99.90;;;;;;5014152;28;20223;-73
2023/07/28 08:22:38;;;;;;;3.80;3.50;;;18.90;99.90;;;;;;5014558;28;20246;-70
2023/07/28 08:25:05;;;;;;;3.37;3.07;;;18.90;99.90;;;;;;5013747;28;20892;-73
2023/07/28 08:27:30;;;;;;;3.77;3.50;;;18.80;99.90;;;;;;5016223;28;20192;-70
2023/07/28 08:29:56;;;;;;;3.83;3.53;;;19.00;99.90;;;;;;5031832;28;20452;-71
2023/07/28 08:32:22;;;;;;;3.60;3.30;;;19.00;99.90;;;;;;5024129;28;20179;-70
2023/07/28 08:34:48;;;;;;;5.80;3.80;;;19.00;99.90;;;;;;5028078;28;20194;-72
2023/07/28 08:37:14;;;;;;;2.97;2.77;;;19.10;99.90;;;;;;5031462;28;20298;-70
2023/07/28 08:39:39;;;;;;;3.60;3.30;;;19.10;99.90;;;;;;5034149;28;20415;-72
2023/07/28 08:42:05;;;;;;;3.57;3.30;;;19.20;99.90;;;;;;5034169;28;20175;-72
2023/07/28 08:44:33;;;;;;;3.67;3.20;;;19.20;99.90;;;;;;5032548;28;20215;-71
2023/07/28 08:47:05;;;;;;;4.87;3.67;;;19.30;99.90;;;;;;5030704;28;20803;-71
2023/07/28 08:49:32;;;;;;;3.53;3.23;;;19.30;99.90;;;;;;5031346;28;20442;-71
2023/07/28 08:52:00;;;;;;;3.63;2.77;;;19.40;99.90;;;;;;5033892;28;20414;-73
2023/07/28 08:54:26;;;;;;;4.57;3.40;;;19.30;99.90;;;;;;5034105;28;20414;-70
2023/07/28 08:56:52;;;;;;;3.40;3.10;;;19.20;99.90;;;;;;5032476;28;20434;-69
2023/07/28 08:59:26;;;;;;;4.90;3.70;;;19.20;99.90;;;;;;5033702;28;20406;-70
2023/07/28 09:01:59;;;;;;;3.47;3.23;;;19.20;99.90;;;;;;5032610;28;20934;-71
2023/07/28 09:04:25;;;;;;;3.30;3.00;;;19.30;99.90;;;;;;5033651;28;21025;-70
2023/07/28 09:06:51;;;;;;;3.60;3.30;;;19.40;99.90;;;;;;5031255;28;20517;-73
2023/07/28 09:09:22;;;;;;;4.37;3.97;;;19.40;99.90;;;;;;5033757;28;20627;-69
2023/07/28 09:11:52;;;;;;;4.27;3.97;;;19.30;99.50;;;;;;5033737;28;20411;-69
2023/07/28 09:14:19;;;;;;;3.43;3.13;;;19.20;95.50;;;;;;5033251;28;20429;-72
2023/07/28 09:16:48;;;;;;;5.30;3.00;;;19.20;95.40;;;;;;5031949;28;20545;-72
2023/07/28 09:19:14;;;;;;;3.93;3.10;;;19.30;97.90;;;;;;5033392;28;20417;-69
2023/07/28 09:21:46;;;;;;;4.57;3.87;;;19.40;99.90;;;;;;5033370;28;20410;-71
2023/07/28 09:24:13;;;;;;;4.20;3.20;;;19.30;95.40;;;;;;5033033;28;20211;-72
2023/07/28 09:26:50;;;;;;;5.43;3.40;;;19.20;81.60;;;;;;5032145;28;20418;-73
2023/07/28 09:29:18;;;;;;;5.50;3.77;;;19.20;85.20;;;;;;5033192;28;20406;-70
2023/07/28 09:31:45;;;;;;;3.20;3.00;;;19.10;77.50;;;;;;5032531;28;20430;-70
2023/07/28 09:34:13;;;;;;;8.00;3.87;;;19.10;89.40;;;;;;5033301;28;20490;-69
2023/07/28 09:36:38;;;;;;;3.57;3.27;;;19.20;95.40;;;;;;5032379;28;20445;-69
2023/07/28 09:39:08;;;;;;;3.70;3.40;;;19.20;95.40;;;;;;5032604;28;20414;-70
2023/07/28 09:41:39;;;;;;;3.53;3.23;;;19.40;95.50;;;;;;5032868;28;20178;-71
2023/07/28 09:44:06;;;;;;;3.50;2.90;;;19.50;95.60;;;;;;5020690;28;20951;-69
2023/07/28 09:46:38;;;;;;;3.83;3.00;;;19.60;95.50;;;;;;5028130;28;20422;-70
2023/07/28 09:49:07;;;;;;;3.80;3.43;;;19.70;95.60;;;;;;5037078;28;20450;-73
2023/07/28 09:51:35;;;;;;;4.13;2.60;;;19.80;95.60;;;;;;5036276;28;20893;-70
2023/07/28 09:54:06;;;;;;;3.90;3.27;;;19.90;95.70;;;;;;5037271;28;20500;-71
2023/07/28 09:56:32;;;;;;;3.73;3.53;;;20.10;95.70;;;;;;5036297;28;20433;-70
2023/07/28 09:59:00;;;;;;;3.83;3.53;;;20.70;99.90;;;;;;5036638;28;20620;-70
2023/07/28 10:01:28;;;;;;;3.73;3.13;;;21.30;96.20;;;;;;5037158;28;20513;-71
2023/07/28 10:03:54;;;;;;;3.17;2.97;;;21.20;26.70;;;;;;5036779;28;20453;-70
2023/07/28 10:06:23;;;;;;;3.27;3.00;;;21.20;4.50;;;;;;5034254;28;20410;-71
2023/07/28 10:08:49;;;;;;;3.20;2.60;;;21.40;1.00;;;;;;5016269;28;20437;-72
2023/07/28 10:11:17;;;;;;;3.20;2.90;;;22.00;1.00;;;;;;5017198;28;20415;-71
2023/07/28 10:13:44;;;;;;;3.77;3.10;;;22.70;1.00;;;;;;5029639;28;20438;-71
2023/07/28 10:16:10;;;;;;;4.73;2.77;;;23.30;1.00;;;;;;5035910;28;20406;-69
2023/07/28 10:18:36;;;;;;;3.87;2.70;;;23.00;1.00;;;;;;5036559;28;20476;-69
2023/07/28 10:21:13;;;;;;;2.70;2.50;;;22.50;1.00;;;;;;5036684;28;20449;-71
2023/07/28 10:23:39;;;;;;;3.17;2.97;;;22.10;1.00;;;;;;5036429;28;20485;-71
2023/07/28 10:26:05;;;;;;;3.10;2.90;;;21.80;1.00;;;;;;5034237;28;21304;-71
2023/07/28 10:28:38;;;;;;;3.07;2.87;;;22.30;1.00;;;;;;5035590;28;20473;-70
2023/07/28 10:31:06;;;;;;;3.13;2.70;;;22.80;1.00;;;;;;5036542;28;20493;-69
2023/07/28 10:33:44;;;;;;;2.30;2.10;;;23.40;1.00;;;;;;5036519;28;20421;-69
2023/07/28 10:36:22;;;;;;;3.37;3.07;;;24.10;1.00;;;;;;5034876;28;20406;-72
2023/07/28 10:39:16;;;;;;;2.63;2.43;;;24.70;1.00;;;;;;5036649;28;20822;-70
2023/07/28 10:42:11;;;;;;;3.30;2.10;;;24.80;1.00;;;;;;5032942;28;20926;-71
2023/07/28 10:44:37;;;;;;;2.37;2.17;;;25.30;1.00;;;;;;5027229;28;20505;-70
2023/07/28 10:47:08;;;;;;;2.83;2.60;;;25.40;1.00;;;;;;5035371;28;20865;-70
2023/07/28 10:49:34;;;;;;;4.07;2.70;;;25.50;1.00;;;;;;5036165;28;20188;-71
2023/07/28 10:52:00;;;;;;;2.80;2.30;;;25.30;1.00;;;;;;5035881;28;20460;-71
2023/07/28 10:54:26;;;;;;;7.40;3.60;;;24.50;1.00;;;;;;5035360;28;20266;-70
2023/07/28 10:56:52;;;;;;;4.20;1.90;;;24.10;1.00;;;;;;5035330;28;20191;-71
2023/07/28 10:59:18;;;;;;;4.47;2.63;;;24.20;1.00;;;;;;5034275;28;20493;-71
2023/07/28 11:01:44;;;;;;;2.60;2.33;;;24.70;1.00;;;;;;5034161;28;20600;-71
2023/07/28 11:04:11;;;;;;;2.60;2.40;;;25.50;1.00;;;;;;5035846;28;20203;-71
2023/07/28 11:06:45;;;;;;;2.63;2.20;;;26.30;1.00;;;;;;5034953;28;20434;-70
2023/07/28 11:09:12;;;;;;;2.50;2.30;;;27.00;1.00;;;;;;5035728;28;20398;-70
2023/07/28 11:11:39;;;;;;;2.67;2.10;;;27.40;1.00;;;;;;5035477;28;20406;-71
2023/07/28 11:14:06;;;;;;;3.50;2.43;;;27.70;1.00;;;;;;5035767;28;20394;-70
2023/07/28 11:16:34;;;;;;;3.30;2.07;;;28.00;1.00;;;;;;5020850;28;20446;-70
2023/07/28 11:19:02;;;;;;;2.50;2.20;;;28.20;1.00;;;;;;5015893;28;20409;-69
2023/07/28 11:21:28;;;;;;;2.33;1.80;;;28.30;1.00;;;;;;5025464;28;20429;-71
2023/07/28 11:23:54;;;;;;;2.30;2.10;;;27.80;99.90;;;;;;5034308;28;20453;-70
2023/07/28 11:26:22;;;;;;;1.90;1.80;;;27.10;99.90;;;;;;5034521;28;20179;-73
2023/07/28 11:28:48;;;;;;;1.87;1.63;;;26.80;99.90;;;;;;5035206;28;20167;-70
2023/07/28 11:31:14;;;;;;;2.07;1.87;;;27.00;99.90;;;;;;5015936;28;20489;-70
2023/07/28 11:33:40;;;;;;;2.03;1.70;;;27.50;99.90;;;;;;5016005;28;20411;-70
2023/07/28 11:36:06;;;;;;;2.00;1.83;;;27.90;99.90;;;;;;5014736;28;20172;-71
2023/07/28 11:38:33;;;;;;;2.50;1.90;;;28.00;99.90;;;;;;5015317;28;20423;-70
2023/07/28 11:41:00;;;;;;;2.03;1.70;;;28.20;99.90;;;;;;5015045;28;20399;-70
2023/07/28 11:43:26;;;;;;;3.93;1.60;;;28.20;99.90;;;;;;5017282;28;21033;-71
2023/07/28 11:45:51;;;;;;;8.30;2.10;;;28.60;99.90;;;;;;5032859;28;20842;-70
2023/07/28 11:48:17;;;;;;;2.30;2.10;;;29.30;99.90;;;;;;5034948;28;20506;-69
2023/07/28 11:50:45;;;;;;;4.57;1.97;;;29.10;99.90;;;;;;5033389;28;20571;-70
2023/07/28 11:53:14;;;;;;;2.17;2.07;;;29.40;99.90;;;;;;5016816;28;20449;-70
2023/07/28 11:55:40;;;;;;;4.33;1.87;;;29.30;99.90;;;;;;5014234;28;20415;-72
2023/07/28 11:58:07;;;;;;;3.77;2.07;;;28.20;99.90;;;;;;5016100;28;20435;-71
2023/07/28 12:00:38;;;;;;;3.17;1.80;;;27.50;99.90;;;;;;5034585;28;20402;-70
2023/07/28 12:03:09;;;;;;;1.83;1.70;;;26.70;99.90;;;;;;5034523;28;20457;-70
2023/07/28 12:05:35;;;;;;;2.20;2.00;;;25.80;99.90;;;;;;5033995;28;20398;-69
2023/07/28 12:08:03;;;;;;;2.50;2.30;;;25.80;99.90;;;;;;5033645;28;20430;-70
2023/07/28 12:10:29;;;;;;;2.50;2.30;;;25.90;99.90;;;;;;5033945;28;20493;-69
2023/07/28 12:12:54;;;;;;;1.90;1.70;;;25.80;99.90;;;;;;5033968;28;21166;-70
2023/07/28 12:15:27;;;;;;;2.37;2.17;;;26.10;99.90;;;;;;5033845;28;20442;-70
2023/07/28 12:18:04;;;;;;;1.70;1.60;;;25.90;99.90;;;;;;5034562;28;20198;-71
2023/07/28 12:20:38;;;;;;;3.83;1.50;;;25.40;99.90;;;;;;5033804;28;20410;-73
2023/07/28 12:23:05;;;;;;;2.30;2.10;;;25.00;99.90;;;;;;5033172;28;20826;-69
2023/07/28 12:25:31;;;;;;;1.70;1.60;;;24.50;99.90;;;;;;5033650;28;20394;-70
2023/07/28 12:27:57;;;;;;;1.80;1.70;;;24.20;99.90;;;;;;5033190;28;20450;-71
2023/07/28 12:30:23;;;;;;;1.63;1.53;;;24.00;99.90;;;;;;5034306;28;20484;-72
2023/07/28 12:32:49;;;;;;;2.37;1.50;;;24.00;99.90;;;;;;5034520;28;20406;-70
2023/07/28 12:35:15;;;;;;;2.00;1.63;;;24.00;99.90;;;;;;5033342;28;20233;-70
2023/07/28 12:37:41;;;;;;;2.17;1.73;;;24.00;99.90;;;;;;5032925;28;20667;-70
2023/07/28 12:40:08;;;;;;;2.00;1.87;;;24.10;99.90;;;;;;5033351;28;20430;-71
2023/07/28 12:42:34;;;;;;;1.70;1.60;;;24.20;99.90;;;;;;5034078;28;20433;-72
2023/07/28 12:45:00;;;;;;;2.70;1.70;;;24.10;99.90;;;;;;5033604;28;20418;-71
2023/07/28 12:47:26;;;;;;;1.93;1.83;;;24.00;99.90;;;;;;5033659;28;20492;-73
2023/07/28 12:49:51;;;;;;;2.13;2.03;;;23.90;99.90;;;;;;5033347;28;20528;-70